createdAt,value
2023-01-13T00:02:05.769Z,9.80
2023-01-13T00:05:30.907Z,9.80
2023-01-13T00:08:54.860Z,9.80
2023-01-13T00:12:18.723Z,9.80
2023-01-13T00:15:42.447Z,9.80
2023-01-13T00:19:06.131Z,9.80
2023-01-13T00:22:33.421Z,9.70
2023-01-13T00:25:57.658Z,9.70
2023-01-13T00:29:21.409Z,9.70
2023-01-13T00:32:45.059Z,9.70
2023-01-13T00:36:11.760Z,9.80
2023-01-13T00:39:36.752Z,9.80
2023-01-13T00:43:17.863Z,9.80
2023-01-13T00:46:41.593Z,9.80
2023-01-13T00:50:05.812Z,9.80
2023-01-13T00:53:30.340Z,9.80
2023-01-13T00:56:55.912Z,9.80
2023-01-13T01:00:21.235Z,9.70
2023-01-13T01:03:45.535Z,9.70
2023-01-13T01:07:09.571Z,9.70
2023-01-13T01:10:35.789Z,9.70
2023-01-13T01:14:03.348Z,9.70
2023-01-13T01:17:27.160Z,9.70
2023-01-13T01:20:50.800Z,9.60
2023-01-13T01:24:16.550Z,9.60
2023-01-13T01:27:40.214Z,9.50
2023-01-13T01:31:08.741Z,9.50
2023-01-13T01:34:32.642Z,9.40
2023-01-13T01:37:56.341Z,9.40
2023-01-13T01:41:22.306Z,9.30
2023-01-13T01:44:58.538Z,9.30
2023-01-13T01:48:23.620Z,9.30
2023-01-13T01:51:50.229Z,9.30
2023-01-13T01:55:17.509Z,9.20
2023-01-13T01:58:46.630Z,9.20
2023-01-13T02:02:10.826Z,9.20
2023-01-13T02:05:35.947Z,9.20
2023-01-13T02:09:00.787Z,9.30
2023-01-13T02:12:32.530Z,9.30
2023-01-13T02:16:04.033Z,9.30
2023-01-13T02:19:57.732Z,9.30
2023-01-13T02:24:21.442Z,9.20
2023-01-13T02:28:34.509Z,9.30
2023-01-13T02:32:08.245Z,9.30
2023-01-13T02:35:37.953Z,9.30
2023-01-13T02:39:06.815Z,9.30
2023-01-13T02:42:52.232Z,9.30
2023-01-13T02:46:21.326Z,9.20
2023-01-13T02:49:51.350Z,9.20
2023-01-13T02:53:20.450Z,9.20
2023-01-13T02:56:48.747Z,9.20
2023-01-13T03:00:14.534Z,9.20
2023-01-13T03:03:38.169Z,9.20
2023-01-13T03:07:12.760Z,9.20
2023-01-13T03:10:48.495Z,9.10
2023-01-13T03:14:25.210Z,9.10
2023-01-13T03:17:56.916Z,9.00
2023-01-13T03:21:26.458Z,8.90
2023-01-13T03:24:56.627Z,8.90
2023-01-13T03:28:24.700Z,8.80
2023-01-13T03:31:56.403Z,8.70
2023-01-13T03:35:24.606Z,8.70
2023-01-13T03:38:52.060Z,8.80
2023-01-13T03:42:20.559Z,8.70
2023-01-13T03:45:45.598Z,8.80
2023-01-13T03:49:10.765Z,8.80
2023-01-13T03:52:38.045Z,8.80
2023-01-13T03:56:07.672Z,8.80
2023-01-13T03:59:37.938Z,8.80
2023-01-13T04:03:08.036Z,8.90
2023-01-13T04:06:39.116Z,8.90
2023-01-13T04:10:06.293Z,8.90
2023-01-13T04:13:32.632Z,8.90
2023-01-13T04:16:58.171Z,8.90
2023-01-13T04:20:21.768Z,8.90
2023-01-13T04:23:45.717Z,8.90
2023-01-13T04:27:09.317Z,8.90
2023-01-13T04:30:33.008Z,9.00
2023-01-13T04:33:57.931Z,9.00
2023-01-13T04:37:22.915Z,9.00
2023-01-13T04:40:46.782Z,8.90
2023-01-13T04:44:10.541Z,8.80
2023-01-13T04:47:34.151Z,8.70
2023-01-13T04:50:59.018Z,8.70
2023-01-13T04:54:22.615Z,8.60
2023-01-13T04:57:46.418Z,8.50
2023-01-13T05:01:10.432Z,8.50
2023-01-13T05:04:34.030Z,8.40
2023-01-13T05:07:59.151Z,8.40
2023-01-13T05:11:40.339Z,8.30
2023-01-13T05:15:21.249Z,8.30
2023-01-13T05:18:44.799Z,8.20
2023-01-13T05:22:25.853Z,8.20
2023-01-13T05:25:50.768Z,8.20
2023-01-13T05:29:14.402Z,8.20
2023-01-13T05:32:37.919Z,8.10
2023-01-13T05:36:03.744Z,8.10
2023-01-13T05:39:48.390Z,8.10
2023-01-13T05:43:19.936Z,8.10
2023-01-13T05:46:43.531Z,8.10
2023-01-13T05:50:07.443Z,8.00
2023-01-13T05:53:31.366Z,8.00
2023-01-13T05:56:54.934Z,8.00
2023-01-13T06:00:21.128Z,8.00
2023-01-13T06:03:44.657Z,8.00
2023-01-13T06:07:08.251Z,8.00
2023-01-13T06:10:32.241Z,8.00
2023-01-13T06:13:55.803Z,8.10
2023-01-13T06:17:21.161Z,8.10
2023-01-13T06:20:44.746Z,8.10
2023-01-13T06:24:09.395Z,8.00
2023-01-13T06:27:32.979Z,8.00
2023-01-13T06:30:58.780Z,8.00
2023-01-13T06:34:23.995Z,8.00
2023-01-13T06:37:51.555Z,8.00
2023-01-13T06:41:15.336Z,8.00
2023-01-13T06:44:38.227Z,7.90
2023-01-13T06:48:01.963Z,7.90
2023-01-13T06:51:27.209Z,7.90
2023-01-13T06:54:50.762Z,7.90
2023-01-13T06:58:14.377Z,8.00
2023-01-13T07:01:38.253Z,8.00
2023-01-13T07:05:01.868Z,8.10
2023-01-13T07:08:26.852Z,8.20
2023-01-13T07:11:51.877Z,8.20
2023-01-13T07:15:20.477Z,8.20
2023-01-13T07:18:44.123Z,8.20
2023-01-13T07:22:07.750Z,8.20
2023-01-13T07:25:32.608Z,8.10
2023-01-13T07:28:56.063Z,8.10
2023-01-13T07:32:19.689Z,8.10
2023-01-13T07:35:43.260Z,8.10
2023-01-13T07:39:07.165Z,8.10
2023-01-13T07:42:49.316Z,8.10
2023-01-13T07:46:13.038Z,8.10
2023-01-13T07:49:36.655Z,8.10
2023-01-13T07:53:00.379Z,8.10
2023-01-13T07:56:24.340Z,8.10
2023-01-13T07:59:51.096Z,8.10
2023-01-13T08:03:18.363Z,8.10
2023-01-13T08:06:42.070Z,8.10
2023-01-13T08:10:06.318Z,8.00
2023-01-13T08:13:30.340Z,8.10
2023-01-13T08:16:55.240Z,8.10
2023-01-13T08:20:19.358Z,8.20
2023-01-13T08:23:44.665Z,8.20
2023-01-13T08:27:08.327Z,8.20
2023-01-13T08:30:32.004Z,8.20
2023-01-13T08:33:57.004Z,8.30
2023-01-13T08:37:20.551Z,8.40
2023-01-13T08:40:44.532Z,8.50
2023-01-13T08:44:09.283Z,8.50
2023-01-13T08:47:32.979Z,8.50
2023-01-13T08:51:03.648Z,8.50
2023-01-13T08:54:27.517Z,8.50
2023-01-13T08:57:52.116Z,8.50
2023-01-13T09:01:23.335Z,8.50
2023-01-13T09:04:48.128Z,8.50
2023-01-13T09:08:14.028Z,8.50
2023-01-13T09:11:59.076Z,8.50
2023-01-13T09:15:23.169Z,8.60
2023-01-13T09:18:46.856Z,8.60
2023-01-13T09:22:14.979Z,8.60
2023-01-13T09:25:40.156Z,8.60
2023-01-13T09:29:03.931Z,8.60
2023-01-13T09:32:27.531Z,8.60
2023-01-13T09:35:50.231Z,8.60
2023-01-13T09:39:13.868Z,8.70
2023-01-13T09:43:03.525Z,8.60
2023-01-13T09:46:47.337Z,8.60
2023-01-13T09:50:22.637Z,8.60
2023-01-13T09:53:51.391Z,8.70
2023-01-13T09:57:17.432Z,8.70
2023-01-13T10:00:47.100Z,8.70
2023-01-13T10:04:14.829Z,8.70
2023-01-13T10:07:44.385Z,8.60
2023-01-13T10:11:27.789Z,8.60
2023-01-13T10:14:55.638Z,8.60
2023-01-13T10:18:26.758Z,8.60
2023-01-13T10:22:18.093Z,8.60
2023-01-13T10:25:51.688Z,8.70
2023-01-13T10:29:24.800Z,8.70
2023-01-13T10:32:53.119Z,8.70
2023-01-13T10:36:21.319Z,8.80
2023-01-13T10:39:46.881Z,8.90
2023-01-13T10:43:10.909Z,9.00
2023-01-13T10:46:36.438Z,9.00
2023-01-13T10:50:03.576Z,9.00
2023-01-13T10:53:30.961Z,9.00
2023-01-13T10:57:20.957Z,9.10
2023-01-13T11:00:48.377Z,9.00
2023-01-13T11:04:33.020Z,9.00
2023-01-13T11:07:57.972Z,9.00
2023-01-13T11:11:39.761Z,9.00
2023-01-13T11:15:09.530Z,9.00
2023-01-13T11:18:43.537Z,8.80
2023-01-13T11:22:09.875Z,8.90
2023-01-13T11:25:42.378Z,9.00
2023-01-13T11:29:15.977Z,9.00
2023-01-13T11:32:50.533Z,9.20
2023-01-13T11:36:20.359Z,9.50
2023-01-13T11:39:55.324Z,9.60
2023-01-13T11:43:25.459Z,9.40
2023-01-13T11:46:52.351Z,9.40
2023-01-13T11:50:19.514Z,9.40
2023-01-13T11:53:57.839Z,9.40
2023-01-13T11:57:57.268Z,9.40
2023-01-13T12:01:47.426Z,9.40
2023-01-13T12:05:24.156Z,9.40
2023-01-13T12:09:04.913Z,9.40
2023-01-13T12:12:43.164Z,9.30
2023-01-13T12:16:23.455Z,9.30
2023-01-13T12:19:51.292Z,9.20
2023-01-13T12:23:26.787Z,9.20
2023-01-13T12:26:55.976Z,9.10
2023-01-13T12:30:27.372Z,9.00
2023-01-13T12:34:00.707Z,9.00
2023-01-13T12:37:30.823Z,8.80
2023-01-13T12:41:07.415Z,8.80
2023-01-13T12:44:30.159Z,8.90
2023-01-13T12:47:54.139Z,8.90
2023-01-13T12:51:24.238Z,8.90
2023-01-13T12:55:17.654Z,8.90
2023-01-13T12:58:42.710Z,8.80
2023-01-13T13:02:31.443Z,8.80
2023-01-13T13:06:10.938Z,8.70
2023-01-13T13:09:43.035Z,8.70
2023-01-13T13:13:20.649Z,8.70
2023-01-13T13:16:51.327Z,8.70
2023-01-13T13:20:53.886Z,8.60
2023-01-13T13:24:18.148Z,8.70
2023-01-13T13:27:46.944Z,8.80
2023-01-13T13:31:22.205Z,8.80
2023-01-13T13:34:53.893Z,8.90
2023-01-13T13:38:46.838Z,9.00
2023-01-13T13:42:31.795Z,8.90
2023-01-13T13:46:12.782Z,8.90
2023-01-13T13:49:41.098Z,8.80
2023-01-13T13:53:09.100Z,8.70
2023-01-13T13:56:39.423Z,8.70
2023-01-13T14:00:09.310Z,8.70
2023-01-13T14:03:39.915Z,8.60
2023-01-13T14:07:16.269Z,8.60
2023-01-13T14:10:43.071Z,8.70
2023-01-13T14:14:08.615Z,8.50
2023-01-13T14:17:32.292Z,8.40
2023-01-13T14:20:59.500Z,8.50
2023-01-13T14:24:24.955Z,8.50
2023-01-13T14:27:50.005Z,8.40
2023-01-13T14:31:15.098Z,8.40
2023-01-13T14:34:40.156Z,8.30
2023-01-13T14:38:04.588Z,8.30
2023-01-13T14:41:31.640Z,8.20
2023-01-13T14:44:56.856Z,8.20
2023-01-13T14:48:21.516Z,8.20
2023-01-13T14:51:45.730Z,8.20
2023-01-13T14:55:26.061Z,8.20
2023-01-13T14:58:50.121Z,8.20
2023-01-13T15:02:39.577Z,8.20
2023-01-13T15:06:03.393Z,8.20
2023-01-13T15:09:29.969Z,8.20
2023-01-13T15:12:55.516Z,8.20
2023-01-13T15:16:21.394Z,8.10
2023-01-13T15:19:46.352Z,7.90
2023-01-13T15:23:10.447Z,7.80
2023-01-13T15:26:35.632Z,7.60
2023-01-13T15:29:59.428Z,7.60
2023-01-13T15:33:23.968Z,7.60
2023-01-13T15:36:49.003Z,7.50
2023-01-13T15:40:15.629Z,7.50
2023-01-13T15:43:56.588Z,7.50
2023-01-13T15:47:28.706Z,7.50
2023-01-13T15:50:52.762Z,7.50
2023-01-13T15:54:19.781Z,7.50
2023-01-13T15:57:48.821Z,7.50
2023-01-13T16:01:13.433Z,7.50
2023-01-13T16:04:37.065Z,7.50
2023-01-13T16:08:00.734Z,7.50
2023-01-13T16:11:25.656Z,7.50
2023-01-13T16:14:49.163Z,7.50
2023-01-13T16:18:18.143Z,7.50
2023-01-13T16:21:43.107Z,7.40
2023-01-13T16:25:07.873Z,7.40
2023-01-13T16:28:35.324Z,7.40
2023-01-13T16:31:58.885Z,7.40
2023-01-13T16:35:23.290Z,7.40
2023-01-13T16:38:47.813Z,7.50
2023-01-13T16:42:11.359Z,7.50
2023-01-13T16:45:36.299Z,7.60
2023-01-13T16:49:04.897Z,7.60
2023-01-13T16:52:28.502Z,7.70
2023-01-13T16:55:52.653Z,7.70
2023-01-13T16:59:16.887Z,7.80
2023-01-13T17:02:43.715Z,7.70
2023-01-13T17:06:12.094Z,7.70
2023-01-13T17:09:35.978Z,7.70
2023-01-13T17:13:04.556Z,7.70
2023-01-13T17:16:37.460Z,7.70
2023-01-13T17:20:02.418Z,7.70
2023-01-13T17:23:26.054Z,7.70
2023-01-13T17:26:51.608Z,7.70
2023-01-13T17:30:15.538Z,7.70
2023-01-13T17:33:39.053Z,7.70
2023-01-13T17:37:04.798Z,7.70
2023-01-13T17:40:28.811Z,7.60
2023-01-13T17:43:53.325Z,7.50
2023-01-13T17:47:16.828Z,7.30
2023-01-13T17:50:41.061Z,7.30
2023-01-13T17:54:06.198Z,7.20
2023-01-13T17:57:29.754Z,7.20
2023-01-13T18:00:53.465Z,7.20
2023-01-13T18:04:18.721Z,7.20
2023-01-13T18:07:42.537Z,7.20
2023-01-13T18:11:07.672Z,7.30
2023-01-13T18:14:31.365Z,7.30
2023-01-13T18:17:54.914Z,7.30
2023-01-13T18:21:38.930Z,7.30
2023-01-13T18:25:21.848Z,7.40
2023-01-13T18:28:46.857Z,7.40
2023-01-13T18:32:10.552Z,7.40
2023-01-13T18:35:34.063Z,7.50
2023-01-13T18:38:58.743Z,7.50
2023-01-13T18:42:41.270Z,7.60
2023-01-13T18:46:06.768Z,7.60
2023-01-13T18:49:30.854Z,7.60
2023-01-13T18:52:54.397Z,7.60
2023-01-13T18:56:18.008Z,7.60
2023-01-13T18:59:41.883Z,7.70
2023-01-13T19:06:35.792Z,7.80
2023-01-13T19:10:00.230Z,7.80
2023-01-13T19:13:23.848Z,7.80
2023-01-13T19:16:47.353Z,7.80
2023-01-13T19:20:13.348Z,7.80
2023-01-13T19:23:36.986Z,7.80
2023-01-13T19:27:00.516Z,7.90
2023-01-13T19:30:24.339Z,7.90
2023-01-13T19:33:47.957Z,7.90
2023-01-13T19:37:12.852Z,7.90
2023-01-13T19:40:36.630Z,7.90
2023-01-13T19:44:17.859Z,7.90
2023-01-13T19:47:41.431Z,8.00
2023-01-13T19:51:05.642Z,7.80
2023-01-13T19:54:30.608Z,7.80
2023-01-13T19:57:54.599Z,7.80
2023-01-13T20:01:18.419Z,7.70
2023-01-13T20:04:44.702Z,7.70
2023-01-13T20:08:08.379Z,7.60
2023-01-13T20:11:33.339Z,7.60
2023-01-13T20:14:57.086Z,7.70
2023-01-13T20:18:20.646Z,7.70
2023-01-13T20:21:45.504Z,7.70
2023-01-13T20:25:10.264Z,7.60
2023-01-13T20:28:37.405Z,7.60
2023-01-13T20:32:01.026Z,7.60
2023-01-13T20:35:29.423Z,7.70
2023-01-13T20:38:56.557Z,7.70
2023-01-13T20:42:34.198Z,7.70
2023-01-13T20:46:00.064Z,7.70
2023-01-13T20:49:23.896Z,7.60
2023-01-13T20:52:48.389Z,7.70
2023-01-13T20:56:13.947Z,7.70
2023-01-13T20:59:39.139Z,7.60
2023-01-13T21:03:04.171Z,7.50
2023-01-13T21:06:28.405Z,7.40
2023-01-13T21:09:52.003Z,7.40
2023-01-13T21:13:32.802Z,7.30
2023-01-13T21:16:56.325Z,7.20
2023-01-13T21:20:21.688Z,7.20
2023-01-13T21:23:47.098Z,7.20
2023-01-13T21:27:10.641Z,7.20
2023-01-13T21:30:34.225Z,7.30
2023-01-13T21:33:59.341Z,7.30
2023-01-13T21:37:24.254Z,7.20
2023-01-13T21:40:47.841Z,7.30
2023-01-13T21:44:33.701Z,7.30
2023-01-13T21:47:59.192Z,7.20
2023-01-13T21:51:22.761Z,7.30
2023-01-13T21:55:05.273Z,7.30
2023-01-13T21:58:28.878Z,7.40
2023-01-13T22:02:23.694Z,7.40
2023-01-13T22:05:38.137Z,7.40
2023-01-13T22:09:01.752Z,7.40
2023-01-13T22:12:27.379Z,7.40
2023-01-13T22:15:51.090Z,7.50
2023-01-13T22:19:14.631Z,7.50
2023-01-13T22:22:38.537Z,7.50
2023-01-13T22:26:02.444Z,7.50
2023-01-13T22:29:27.354Z,7.50
2023-01-13T22:32:51.046Z,7.50
2023-01-13T22:36:15.161Z,7.50
2023-01-13T22:39:39.383Z,7.50
2023-01-13T22:43:02.935Z,7.40
2023-01-13T22:46:27.880Z,7.40
2023-01-13T22:49:51.448Z,7.50
2023-01-13T22:53:15.047Z,7.50
2023-01-13T22:56:39.258Z,7.40
2023-01-13T23:00:02.889Z,7.40
2023-01-13T23:03:28.072Z,7.40
2023-01-13T23:06:51.628Z,7.40
2023-01-13T23:10:15.951Z,7.40
2023-01-13T23:13:42.171Z,7.40
2023-01-13T23:17:07.009Z,7.40
2023-01-13T23:20:32.205Z,7.30
2023-01-13T23:23:58.472Z,7.20
2023-01-13T23:27:22.434Z,7.20
2023-01-13T23:30:46.001Z,7.10
2023-01-13T23:34:09.652Z,7.10
2023-01-13T23:37:35.159Z,7.00
2023-01-13T23:40:59.069Z,7.00
2023-01-13T23:44:23.112Z,7.00
2023-01-13T23:47:46.948Z,7.00
2023-01-13T23:51:13.172Z,7.00
2023-01-13T23:54:38.247Z,7.00
2023-01-13T23:58:01.918Z,7.10
